Crown Princess — ZCDM6 — position and weather

sailwx.info

Track history (hours):
 
Tides and Currents Weather Stations Pressure Air Temp Water Temp Dewpoint Dewpoint Depression Visibility Wind Speed Wind Dir Waves Ship Positions

Crown Princess

Last reported at 2017-Apr-28 23:19 UTC. Time now 2017-Apr-28 23:51 UTC.
Position N 42°29' E 010°26'.

Type: Ship. MMSI: 310500000.

Date/timePositionNaut miles runAvg speedWind from/ knotsBaromVisibWave heightAir tempDewpointWater temp
2017-Apr-28 23:19N 42°29' E 010°26'718.1
2017-Apr-28 22:55N 42°24' E 010°33'71 2.9
2017-Apr-27 22:00N 41°24' E 009°42'109 6.8 240 / 301009.810.8 14.212.417.0
2017-Apr-27 06:00N 41°42' E 007°18'22818.6 330 / 151006.010.8 13.810.216.0
2017-Apr-26 17:44N 41°16' E 002°15'6 0.5
2017-Apr-26 05:45N 41°21' E 002°10'6 5.9
2017-Apr-26 04:42N 41°15' E 002°11'615.2
2017-Apr-26 04:17N 41°09' E 002°09'619.7
2017-Apr-26 04:00N 41°04' E 002°05'1020.1
2017-Apr-26 03:30N 40°55' E 001°59'1020.3
2017-Apr-26 03:00N 40°46' E 001°53'1020.4
2017-Apr-26 02:30N 40°37' E 001°46'1019.3
2017-Apr-26 02:00N 40°29' E 001°40'1019.1
2017-Apr-26 01:30N 40°20' E 001°35'1019.4
2017-Apr-26 01:00N 40°12' E 001°29'1019.3
2017-Apr-26 00:30N 40°03' E 001°23'1019.2
2017-Apr-26 00:00N 39°55' E 001°17'1019.3
2017-Apr-25 23:30N 39°46' E 001°11'2119.2
2017-Apr-25 22:24N 39°27' E 000°58'919.2
2017-Apr-25 21:57N 39°20' E 000°53'5419.2
2017-Apr-25 19:06N 38°32' E 000°19'1319.7
2017-Apr-25 18:25N 38°21' E 000°10'920.2
2017-Apr-25 17:58N 38°13' E 000°04'920.2
2017-Apr-25 17:30N 38°05' W 000°03'1020.1
2017-Apr-25 17:00N 37°57' W 000°09'1020.2
2017-Apr-25 16:30N 37°48' W 000°16'1020.2
2017-Apr-25 16:00N 37°40' W 000°24'1020.9
2017-Apr-25 15:30N 37°32' W 000°32'1020.7
2017-Apr-25 15:00N 37°25' W 000°42'1020.2
2017-Apr-25 14:30N 37°18' W 000°52'2020.3
2017-Apr-25 13:30N 37°04' W 001°10'1120.9
2017-Apr-25 13:00N 36°57' W 001°19'3320.2
2017-Apr-25 13:00N 36°54' W 001°18'1219.9 210 / 91011.510.8 18.015.118.0
2017-Apr-25 12:23N 36°49' W 001°31'719.0
2017-Apr-25 12:00N 36°42' W 001°36'1123.3 220 / 81012.310.8 18.015.118.0
2017-Apr-25 11:31N 36°37' W 001°48'120.3
2017-Apr-25 11:29N 36°36' W 001°49'715.4
2017-Apr-25 11:00N 36°30' W 001°54'3447.0 250 / 51012.810.8 18.015.118.0
2017-Apr-25 10:59N 36°30' W 001°58'14720.0
2017-Apr-25 03:40N 36°02' W 004°57'620.7
2017-Apr-25 03:23N 36°01' W 005°04'821.4
2017-Apr-25 03:00N 36°00' W 005°14'1121.7
2017-Apr-25 02:31N 35°58' W 005°27'1020.9
2017-Apr-25 02:00N 35°56' W 005°39'1121.1
2017-Apr-25 01:30N 35°55' W 005°52'1122.7
2017-Apr-25 01:00N 35°55' W 006°07'1521.7
2017-Apr-25 00:19N 35°57' W 006°25'616.8
2017-Apr-25 00:00N 35°54' W 006°30'2020.3 210 / 61013.6 5.4 17.414.317.0
2017-Apr-24 23:00N 36°00' W 006°54'12322.2 180 / 51014.0 5.4 17.414.317.0
2017-Apr-24 17:26N 36°35' W 009°21'921.6
2017-Apr-24 17:00N 36°42' W 009°28'1020.9
2017-Apr-24 16:30N 36°52' W 009°34'1221.5
2017-Apr-24 15:58N 37°03' W 009°37'1021.4
2017-Apr-24 15:30N 37°13' W 009°40'1321.5
2017-Apr-24 14:54N 37°25' W 009°42'821.4
2017-Apr-24 14:31N 37°34' W 009°44'2221.8
2017-Apr-24 13:30N 37°55' W 009°51'1121.8
2017-Apr-24 13:00N 38°05' W 009°54'7434.8
2017-Apr-24 13:00N 38°00' W 009°48'1736.1 360 / 61014.9 5.4 16.013.316.0
2017-Apr-24 12:30N 38°16' W 009°57'1121.3
2017-Apr-24 12:00N 38°26' W 010°01'2156.0
2017-Apr-24 12:00N 38°24' W 010°00'1326.4 010 / 101015.3 5.4 16.013.316.0
2017-Apr-24 11:30N 38°36' W 010°04'1121.1
2017-Apr-24 11:00N 38°47' W 010°05'6385.2
2017-Apr-24 11:00N 38°42' W 010°00'1633.2 010 / 91015.9 5.4 16.013.316.0
2017-Apr-24 10:31N 38°58' W 010°05'1121.4
2017-Apr-24 10:01N 39°08' W 010°05'1121.3
2017-Apr-24 09:31N 39°19' W 010°06'1121.6
2017-Apr-24 09:01N 39°30' W 010°05'12703.7
2017-Apr-24 09:00N 39°18' W 010°06'2346.6 030 / 121015.8 5.4 16.912.617.0
2017-Apr-24 08:30N 39°41' W 010°05'1121.6
2017-Apr-24 08:01N 39°51' W 010°05'1121.7
2017-Apr-24 07:30N 40°02' W 010°05'1121.7
2017-Apr-24 07:00N 40°13' W 010°05'1121.5
2017-Apr-24 06:30N 40°24' W 010°05'1121.4
2017-Apr-24 06:00N 40°35' W 010°05'4486.6
2017-Apr-24 06:00N 40°36' W 010°00'1019.9 330 / 201011.310.8 14.512.716.0
2017-Apr-24 05:30N 40°45' W 010°04'1021.4
2017-Apr-24 05:00N 40°56' W 010°03'1121.6
2017-Apr-24 04:30N 41°07' W 010°03'1121.5
2017-Apr-24 04:00N 41°17' W 010°03'1121.8
2017-Apr-24 03:31N 41°28' W 010°04'1121.7
2017-Apr-24 03:00N 41°39' W 010°04'1121.6
2017-Apr-24 02:31N 41°50' W 010°04'1121.5
2017-Apr-24 02:00N 42°01' W 010°04'1121.6
2017-Apr-24 01:30N 42°12' W 010°05'1121.5
2017-Apr-24 01:00N 42°22' W 010°05'1221.5
2017-Apr-24 00:28N 42°34' W 010°06'1621.7
2017-Apr-23 23:43N 42°50' W 010°07'521.5
2017-Apr-23 23:29N 42°55' W 010°07'1021.5
2017-Apr-23 23:00N 43°05' W 010°08'1121.4
2017-Apr-23 22:30N 43°16' W 010°07'2221.5
2017-Apr-23 21:29N 43°36' W 009°54'1221.5
2017-Apr-23 20:55N 43°47' W 009°47'16620.9
2017-Apr-23 13:00N 46°12' W 007°54'2019.8 090 / 271021.510.8 13.010.113.0
2017-Apr-23 12:00N 46°30' W 007°42'1717.2 090 / 251022.310.8 13.010.113.0
2017-Apr-23 11:00N 46°42' W 007°24'13722.1 090 / 221023.010.8 13.010.113.0
2017-Apr-23 04:48N 48°45' W 005°55'721.5
2017-Apr-23 04:29N 48°51' W 005°50'1121.0
2017-Apr-23 03:56N 48°59' W 005°37'920.5
2017-Apr-23 03:29N 49°03' W 005°25'815.3
2017-Apr-23 02:57N 49°08' W 005°14'1920.6
2017-Apr-23 02:02N 49°17' W 004°49'420.7
2017-Apr-23 01:50N 49°19' W 004°44'4021.7
2017-Apr-23 00:00N 49°36' W 003°48'627.4 050 / 71027.610.8 11.8 7.712.0
2017-Apr-22 23:47N 49°42' W 003°47'621.9
2017-Apr-22 23:30N 49°45' W 003°39'1122.4
2017-Apr-22 23:00N 49°51' W 003°25'3206.1
2017-Apr-22 23:00N 49°48' W 003°24'1327.0 340 / 101027.810.8 11.8 7.712.0
2017-Apr-22 22:30N 49°57' W 003°10'1122.5
2017-Apr-22 22:00N 50°01' W 002°54'1122.3
2017-Apr-22 21:30N 50°04' W 002°37'1322.2
2017-Apr-22 20:56N 50°08' W 002°18'4120.7
2017-Apr-22 18:56N 50°26' W 001°20'818.4
2017-Apr-22 18:30N 50°30' W 001°09'816.8
2017-Apr-22 18:00N 50°36' W 000°60'612.6
2017-Apr-22 17:30N 50°42' W 000°58'815.1
2017-Apr-22 17:01N 50°46' W 001°09'612.8
2017-Apr-22 16:30N 50°48' W 001°18'4 8.5
2017-Apr-22 16:00N 50°52' W 001°21'3 4.5
2017-Apr-22 15:26N 50°53' W 001°24'0 0.0
2017-Apr-22 14:59N 50°53' W 001°24'0 0.0
2017-Apr-22 14:29N 50°53' W 001°24'0 0.0
2017-Apr-22 13:29N 50°53' W 001°24'0 0.0
2017-Apr-22 12:58N 50°53' W 001°24'0 0.0
2017-Apr-22 12:28N 50°53' W 001°24'0 0.0
2017-Apr-22 11:58N 50°53' W 001°24'0 0.0
2017-Apr-22 11:28N 50°53' W 001°24'0 0.0
2017-Apr-22 10:58N 50°53' W 001°24'0 0.0
2017-Apr-22 10:30N 50°53' W 001°24'0 0.0
2017-Apr-22 10:00N 50°53' W 001°24'0 0.0
2017-Apr-22 09:30N 50°53' W 001°24'0 0.0
2017-Apr-22 09:00N 50°53' W 001°24'0 0.0
2017-Apr-22 08:29N 50°53' W 001°24'0 0.0
2017-Apr-22 07:59N 50°53' W 001°24'0 0.0
2017-Apr-22 07:29N 50°53' W 001°24'0 0.0
2017-Apr-22 06:59N 50°53' W 001°24'0 0.0
2017-Apr-22 06:29N 50°53' W 001°24'0 0.0
2017-Apr-22 05:58N 50°53' W 001°24'0 0.0
2017-Apr-22 05:28N 50°53' W 001°24'0 0.0
2017-Apr-22 04:58N 50°53' W 001°24'0 0.0
2017-Apr-22 04:28N 50°53' W 001°24'0 0.2
2017-Apr-22 04:00N 50°53' W 001°24'1 2.7
2017-Apr-22 03:30N 50°52' W 001°23'4 8.4
2017-Apr-22 03:00N 50°49' W 001°18'4 7.0
2017-Apr-22 02:31N 50°46' W 001°15'815.6
2017-Apr-22 02:01N 50°44' W 001°04'510.8
2017-Apr-22 01:30N 50°40' W 000°58'510.7
2017-Apr-22 01:00N 50°34' W 000°60'611.7
2017-Apr-22 00:30N 50°29' W 001°00'5 9.8
2017-Apr-22 00:00N 50°24' W 001°01'610.6
2017-Apr-21 23:26N 50°18' W 000°57'612.5
2017-Apr-21 22:58N 50°12' W 000°56'714.0
2017-Apr-21 22:28N 50°06' W 000°53'613.9
2017-Apr-21 22:00N 49°60' W 000°50'714.4
2017-Apr-21 21:30N 49°54' W 000°44'714.6
2017-Apr-21 21:00N 49°48' W 000°36'7470.5
2017-Apr-21 21:00N 49°54' W 000°42'1428.7 290 / 121030.610.8 12.0 5.612.0
2017-Apr-21 20:30N 49°43' W 000°29'714.7
2017-Apr-21 20:00N 49°38' W 000°21'713.6
2017-Apr-21 19:31N 49°33' W 000°14'713.9
2017-Apr-21 19:00N 49°31' W 000°03'612.6
2017-Apr-21 18:30N 49°29' E 000°06'0 0.7
2017-Apr-21 18:00N 49°29' E 000°06'0 0.0
2017-Apr-21 17:30N 49°29' E 000°06'0 0.0
2017-Apr-21 16:59N 49°29' E 000°06'0 0.0
2017-Apr-21 16:29N 49°29' E 000°06'0 0.0
2017-Apr-21 15:59N 49°29' E 000°06'0 0.0
2017-Apr-21 15:29N 49°29' E 000°06'0 0.0
2017-Apr-21 14:58N 49°29' E 000°06'0 0.0
2017-Apr-21 14:28N 49°29' E 000°06'0 0.0
2017-Apr-21 13:28N 49°29' E 000°06'0 0.0
2017-Apr-21 12:58N 49°29' E 000°06'0 0.0
2017-Apr-21 12:30N 49°29' E 000°06'0 0.0
2017-Apr-21 12:00N 49°29' E 000°06'0 0.0
2017-Apr-21 11:30N 49°29' E 000°06'0 0.0
2017-Apr-21 11:00N 49°29' E 000°06'0 0.0
2017-Apr-21 10:29N 49°29' E 000°06'0 0.0
2017-Apr-21 09:59N 49°29' E 000°06'0 0.0
2017-Apr-21 09:29N 49°29' E 000°06'0 0.0
2017-Apr-21 08:59N 49°29' E 000°06'0 0.0
2017-Apr-21 08:29N 49°29' E 000°06'0 0.0
2017-Apr-21 07:55N 49°29' E 000°06'0 0.0
2017-Apr-21 07:28N 49°29' E 000°06'0 0.0
2017-Apr-21 06:58N 49°29' E 000°06'0 0.0
2017-Apr-21 06:28N 49°29' E 000°06'0 0.0
2017-Apr-21 05:55N 49°29' E 000°06'0 0.0
2017-Apr-21 05:30N 49°29' E 000°06'0 0.4
2017-Apr-21 05:00N 49°29' E 000°07'2 3.3
2017-Apr-21 04:30N 49°29' E 000°04'713.1
2017-Apr-21 04:00N 49°31' W 000°05'611.3
2017-Apr-21 03:30N 49°33' W 000°14'815.4
2017-Apr-21 03:00N 49°36' W 000°25'1019.1
2017-Apr-21 02:30N 49°41' W 000°37'1020.0
2017-Apr-21 02:00N 49°46' W 000°50'1020.2
2017-Apr-21 01:30N 49°52' W 001°03'1121.4
2017-Apr-21 01:00N 49°56' W 001°19'1122.0
2017-Apr-21 00:30N 49°56' W 001°36'1121.5
2017-Apr-21 00:00N 49°57' W 001°53'2520.6
2017-Apr-20 22:48N 49°55' W 002°31'620.3
2017-Apr-20 22:30N 49°53' W 002°40'1020.3
2017-Apr-20 22:01N 49°49' W 002°54'1120.2
2017-Apr-20 21:27N 49°43' W 003°09'920.4
2017-Apr-20 21:00N 49°39' W 003°21'7537.0
2017-Apr-20 21:00N 49°36' W 003°12'7820.7 360 / 81035.410.8 10.0 3.113.0
2017-Apr-20 17:13N 49°00' W 004°59'420.0
2017-Apr-20 17:00N 48°58' W 005°04'1019.8
2017-Apr-20 16:30N 48°53' W 005°17'1019.2
2017-Apr-20 16:00N 48°50' W 005°31'6816.8
2017-Apr-20 12:00N 47°42' W 005°36'4522.5 080 / 341034.810.8 10.0 7.012.0
2017-Apr-20 10:00N 47°00' W 005°12'19019.0 100 / 381033.910.8 10.0 7.013.0
2017-Apr-20 00:00N 44°06' W 003°24'1918.5 080 / 551025.6 5.4 14.0 8.015.0
2017-Apr-19 23:00N 43°48' W 003°18'   080 / 541024.6 5.4 14.0 8.015.0
Track history (hours):
 
Tides and Currents Weather Stations Pressure Air Temp Water Temp Dewpoint Dewpoint Depression Visibility Wind Speed Wind Dir Waves Ship Positions

Crown Princess

Last reported at 2017-Apr-28 23:19 UTC. Time now 2017-Apr-28 23:51 UTC.
Position N 42°29' E 010°26'.

Type: Ship. MMSI: 310500000.

Date/timePositionNaut miles runAvg speedWind from/ knotsBaromVisibWave heightAir tempDewpointWater temp
2017-Apr-28 23:19N 42°29' E 010°26'718.1
2017-Apr-28 22:55N 42°24' E 010°33'71 2.9
2017-Apr-27 22:00N 41°24' E 009°42'109 6.8 240 / 301009.810.8 14.212.417.0
2017-Apr-27 06:00N 41°42' E 007°18'22818.6 330 / 151006.010.8 13.810.216.0
2017-Apr-26 17:44N 41°16' E 002°15'6 0.5
2017-Apr-26 05:45N 41°21' E 002°10'6 5.9
2017-Apr-26 04:42N 41°15' E 002°11'615.2
2017-Apr-26 04:17N 41°09' E 002°09'619.7
2017-Apr-26 04:00N 41°04' E 002°05'1020.1
2017-Apr-26 03:30N 40°55' E 001°59'1020.3
2017-Apr-26 03:00N 40°46' E 001°53'1020.4
2017-Apr-26 02:30N 40°37' E 001°46'1019.3
2017-Apr-26 02:00N 40°29' E 001°40'1019.1
2017-Apr-26 01:30N 40°20' E 001°35'1019.4
2017-Apr-26 01:00N 40°12' E 001°29'1019.3
2017-Apr-26 00:30N 40°03' E 001°23'1019.2
2017-Apr-26 00:00N 39°55' E 001°17'1019.3
2017-Apr-25 23:30N 39°46' E 001°11'2119.2
2017-Apr-25 22:24N 39°27' E 000°58'919.2
2017-Apr-25 21:57N 39°20' E 000°53'5419.2
2017-Apr-25 19:06N 38°32' E 000°19'1319.7
2017-Apr-25 18:25N 38°21' E 000°10'920.2
2017-Apr-25 17:58N 38°13' E 000°04'920.2
2017-Apr-25 17:30N 38°05' W 000°03'1020.1
2017-Apr-25 17:00N 37°57' W 000°09'1020.2
2017-Apr-25 16:30N 37°48' W 000°16'1020.2
2017-Apr-25 16:00N 37°40' W 000°24'1020.9
2017-Apr-25 15:30N 37°32' W 000°32'1020.7
2017-Apr-25 15:00N 37°25' W 000°42'1020.2
2017-Apr-25 14:30N 37°18' W 000°52'2020.3
2017-Apr-25 13:30N 37°04' W 001°10'1120.9
2017-Apr-25 13:00N 36°57' W 001°19'3320.2
2017-Apr-25 13:00N 36°54' W 001°18'1219.9 210 / 91011.510.8 18.015.118.0
2017-Apr-25 12:23N 36°49' W 001°31'719.0
2017-Apr-25 12:00N 36°42' W 001°36'1123.3 220 / 81012.310.8 18.015.118.0
2017-Apr-25 11:31N 36°37' W 001°48'120.3
2017-Apr-25 11:29N 36°36' W 001°49'715.4
2017-Apr-25 11:00N 36°30' W 001°54'3447.0 250 / 51012.810.8 18.015.118.0
2017-Apr-25 10:59N 36°30' W 001°58'14720.0
2017-Apr-25 03:40N 36°02' W 004°57'620.7
2017-Apr-25 03:23N 36°01' W 005°04'821.4
2017-Apr-25 03:00N 36°00' W 005°14'1121.7
2017-Apr-25 02:31N 35°58' W 005°27'1020.9
2017-Apr-25 02:00N 35°56' W 005°39'1121.1
2017-Apr-25 01:30N 35°55' W 005°52'1122.7
2017-Apr-25 01:00N 35°55' W 006°07'1521.7
2017-Apr-25 00:19N 35°57' W 006°25'616.8
2017-Apr-25 00:00N 35°54' W 006°30'2020.3 210 / 61013.6 5.4 17.414.317.0
2017-Apr-24 23:00N 36°00' W 006°54'12322.2 180 / 51014.0 5.4 17.414.317.0
2017-Apr-24 17:26N 36°35' W 009°21'921.6
2017-Apr-24 17:00N 36°42' W 009°28'1020.9
2017-Apr-24 16:30N 36°52' W 009°34'1221.5
2017-Apr-24 15:58N 37°03' W 009°37'1021.4
2017-Apr-24 15:30N 37°13' W 009°40'1321.5
2017-Apr-24 14:54N 37°25' W 009°42'821.4
2017-Apr-24 14:31N 37°34' W 009°44'2221.8
2017-Apr-24 13:30N 37°55' W 009°51'1121.8
2017-Apr-24 13:00N 38°05' W 009°54'7434.8
2017-Apr-24 13:00N 38°00' W 009°48'1736.1 360 / 61014.9 5.4 16.013.316.0
2017-Apr-24 12:30N 38°16' W 009°57'1121.3
2017-Apr-24 12:00N 38°26' W 010°01'2156.0
2017-Apr-24 12:00N 38°24' W 010°00'1326.4 010 / 101015.3 5.4 16.013.316.0
2017-Apr-24 11:30N 38°36' W 010°04'1121.1
2017-Apr-24 11:00N 38°47' W 010°05'6385.2
2017-Apr-24 11:00N 38°42' W 010°00'1633.2 010 / 91015.9 5.4 16.013.316.0
2017-Apr-24 10:31N 38°58' W 010°05'1121.4
2017-Apr-24 10:01N 39°08' W 010°05'1121.3
2017-Apr-24 09:31N 39°19' W 010°06'1121.6
2017-Apr-24 09:01N 39°30' W 010°05'12703.7
2017-Apr-24 09:00N 39°18' W 010°06'2346.6 030 / 121015.8 5.4 16.912.617.0
2017-Apr-24 08:30N 39°41' W 010°05'1121.6
2017-Apr-24 08:01N 39°51' W 010°05'1121.7
2017-Apr-24 07:30N 40°02' W 010°05'1121.7
2017-Apr-24 07:00N 40°13' W 010°05'1121.5
2017-Apr-24 06:30N 40°24' W 010°05'1121.4
2017-Apr-24 06:00N 40°35' W 010°05'4486.6
2017-Apr-24 06:00N 40°36' W 010°00'1019.9 330 / 201011.310.8 14.512.716.0
2017-Apr-24 05:30N 40°45' W 010°04'1021.4
2017-Apr-24 05:00N 40°56' W 010°03'1121.6
2017-Apr-24 04:30N 41°07' W 010°03'1121.5
2017-Apr-24 04:00N 41°17' W 010°03'1121.8
2017-Apr-24 03:31N 41°28' W 010°04'1121.7
2017-Apr-24 03:00N 41°39' W 010°04'1121.6
2017-Apr-24 02:31N 41°50' W 010°04'1121.5
2017-Apr-24 02:00N 42°01' W 010°04'1121.6
2017-Apr-24 01:30N 42°12' W 010°05'1121.5
2017-Apr-24 01:00N 42°22' W 010°05'1221.5
2017-Apr-24 00:28N 42°34' W 010°06'1621.7
2017-Apr-23 23:43N 42°50' W 010°07'521.5
2017-Apr-23 23:29N 42°55' W 010°07'1021.5
2017-Apr-23 23:00N 43°05' W 010°08'1121.4
2017-Apr-23 22:30N 43°16' W 010°07'2221.5
2017-Apr-23 21:29N 43°36' W 009°54'1221.5
2017-Apr-23 20:55N 43°47' W 009°47'16620.9
2017-Apr-23 13:00N 46°12' W 007°54'2019.8 090 / 271021.510.8 13.010.113.0
2017-Apr-23 12:00N 46°30' W 007°42'1717.2 090 / 251022.310.8 13.010.113.0
2017-Apr-23 11:00N 46°42' W 007°24'13722.1 090 / 221023.010.8 13.010.113.0
2017-Apr-23 04:48N 48°45' W 005°55'721.5
2017-Apr-23 04:29N 48°51' W 005°50'1121.0
2017-Apr-23 03:56N 48°59' W 005°37'920.5
2017-Apr-23 03:29N 49°03' W 005°25'815.3
2017-Apr-23 02:57N 49°08' W 005°14'1920.6
2017-Apr-23 02:02N 49°17' W 004°49'420.7
2017-Apr-23 01:50N 49°19' W 004°44'4021.7
2017-Apr-23 00:00N 49°36' W 003°48'627.4 050 / 71027.610.8 11.8 7.712.0
2017-Apr-22 23:47N 49°42' W 003°47'621.9
2017-Apr-22 23:30N 49°45' W 003°39'1122.4
2017-Apr-22 23:00N 49°51' W 003°25'3206.1
2017-Apr-22 23:00N 49°48' W 003°24'1327.0 340 / 101027.810.8 11.8 7.712.0
2017-Apr-22 22:30N 49°57' W 003°10'1122.5
2017-Apr-22 22:00N 50°01' W 002°54'1122.3
2017-Apr-22 21:30N 50°04' W 002°37'1322.2
2017-Apr-22 20:56N 50°08' W 002°18'4120.7
2017-Apr-22 18:56N 50°26' W 001°20'818.4
2017-Apr-22 18:30N 50°30' W 001°09'816.8
2017-Apr-22 18:00N 50°36' W 000°60'612.6
2017-Apr-22 17:30N 50°42' W 000°58'815.1
2017-Apr-22 17:01N 50°46' W 001°09'612.8
2017-Apr-22 16:30N 50°48' W 001°18'4 8.5
2017-Apr-22 16:00N 50°52' W 001°21'3 4.5
2017-Apr-22 15:26N 50°53' W 001°24'0 0.0
2017-Apr-22 14:59N 50°53' W 001°24'0 0.0
2017-Apr-22 14:29N 50°53' W 001°24'0 0.0
2017-Apr-22 13:29N 50°53' W 001°24'0 0.0
2017-Apr-22 12:58N 50°53' W 001°24'0 0.0
2017-Apr-22 12:28N 50°53' W 001°24'0 0.0
2017-Apr-22 11:58N 50°53' W 001°24'0 0.0
2017-Apr-22 11:28N 50°53' W 001°24'0 0.0
2017-Apr-22 10:58N 50°53' W 001°24'0 0.0
2017-Apr-22 10:30N 50°53' W 001°24'0 0.0
2017-Apr-22 10:00N 50°53' W 001°24'0 0.0
2017-Apr-22 09:30N 50°53' W 001°24'0 0.0
2017-Apr-22 09:00N 50°53' W 001°24'0 0.0
2017-Apr-22 08:29N 50°53' W 001°24'0 0.0
2017-Apr-22 07:59N 50°53' W 001°24'0 0.0
2017-Apr-22 07:29N 50°53' W 001°24'0 0.0
2017-Apr-22 06:59N 50°53' W 001°24'0 0.0
2017-Apr-22 06:29N 50°53' W 001°24'0 0.0
2017-Apr-22 05:58N 50°53' W 001°24'0 0.0
2017-Apr-22 05:28N 50°53' W 001°24'0 0.0
2017-Apr-22 04:58N 50°53' W 001°24'0 0.0
2017-Apr-22 04:28N 50°53' W 001°24'0 0.2
2017-Apr-22 04:00N 50°53' W 001°24'1 2.7
2017-Apr-22 03:30N 50°52' W 001°23'4 8.4
2017-Apr-22 03:00N 50°49' W 001°18'4 7.0
2017-Apr-22 02:31N 50°46' W 001°15'815.6
2017-Apr-22 02:01N 50°44' W 001°04'510.8
2017-Apr-22 01:30N 50°40' W 000°58'510.7
2017-Apr-22 01:00N 50°34' W 000°60'611.7
2017-Apr-22 00:30N 50°29' W 001°00'5 9.8
2017-Apr-22 00:00N 50°24' W 001°01'610.6
2017-Apr-21 23:26N 50°18' W 000°57'612.5
2017-Apr-21 22:58N 50°12' W 000°56'714.0
2017-Apr-21 22:28N 50°06' W 000°53'613.9
2017-Apr-21 22:00N 49°60' W 000°50'714.4
2017-Apr-21 21:30N 49°54' W 000°44'714.6
2017-Apr-21 21:00N 49°48' W 000°36'7470.5
2017-Apr-21 21:00N 49°54' W 000°42'1428.7 290 / 121030.610.8 12.0 5.612.0
2017-Apr-21 20:30N 49°43' W 000°29'714.7
2017-Apr-21 20:00N 49°38' W 000°21'713.6
2017-Apr-21 19:31N 49°33' W 000°14'713.9
2017-Apr-21 19:00N 49°31' W 000°03'612.6
2017-Apr-21 18:30N 49°29' E 000°06'0 0.7
2017-Apr-21 18:00N 49°29' E 000°06'0 0.0
2017-Apr-21 17:30N 49°29' E 000°06'0 0.0
2017-Apr-21 16:59N 49°29' E 000°06'0 0.0
2017-Apr-21 16:29N 49°29' E 000°06'0 0.0
2017-Apr-21 15:59N 49°29' E 000°06'0 0.0
2017-Apr-21 15:29N 49°29' E 000°06'0 0.0
2017-Apr-21 14:58N 49°29' E 000°06'0 0.0
2017-Apr-21 14:28N 49°29' E 000°06'0 0.0
2017-Apr-21 13:28N 49°29' E 000°06'0 0.0
2017-Apr-21 12:58N 49°29' E 000°06'0 0.0
2017-Apr-21 12:30N 49°29' E 000°06'0 0.0
2017-Apr-21 12:00N 49°29' E 000°06'0 0.0
2017-Apr-21 11:30N 49°29' E 000°06'0 0.0
2017-Apr-21 11:00N 49°29' E 000°06'0 0.0
2017-Apr-21 10:29N 49°29' E 000°06'0 0.0
2017-Apr-21 09:59N 49°29' E 000°06'0 0.0
2017-Apr-21 09:29N 49°29' E 000°06'0 0.0
2017-Apr-21 08:59N 49°29' E 000°06'0 0.0
2017-Apr-21 08:29N 49°29' E 000°06'0 0.0
2017-Apr-21 07:55N 49°29' E 000°06'0 0.0
2017-Apr-21 07:28N 49°29' E 000°06'0 0.0
2017-Apr-21 06:58N 49°29' E 000°06'0 0.0
2017-Apr-21 06:28N 49°29' E 000°06'0 0.0
2017-Apr-21 05:55N 49°29' E 000°06'0 0.0
2017-Apr-21 05:30N 49°29' E 000°06'0 0.4
2017-Apr-21 05:00N 49°29' E 000°07'2 3.3
2017-Apr-21 04:30N 49°29' E 000°04'713.1
2017-Apr-21 04:00N 49°31' W 000°05'611.3
2017-Apr-21 03:30N 49°33' W 000°14'815.4
2017-Apr-21 03:00N 49°36' W 000°25'1019.1
2017-Apr-21 02:30N 49°41' W 000°37'1020.0
2017-Apr-21 02:00N 49°46' W 000°50'1020.2
2017-Apr-21 01:30N 49°52' W 001°03'1121.4
2017-Apr-21 01:00N 49°56' W 001°19'1122.0
2017-Apr-21 00:30N 49°56' W 001°36'1121.5
2017-Apr-21 00:00N 49°57' W 001°53'2520.6
2017-Apr-20 22:48N 49°55' W 002°31'620.3
2017-Apr-20 22:30N 49°53' W 002°40'1020.3
2017-Apr-20 22:01N 49°49' W 002°54'1120.2
2017-Apr-20 21:27N 49°43' W 003°09'920.4
2017-Apr-20 21:00N 49°39' W 003°21'7537.0
2017-Apr-20 21:00N 49°36' W 003°12'7820.7 360 / 81035.410.8 10.0 3.113.0
2017-Apr-20 17:13N 49°00' W 004°59'420.0
2017-Apr-20 17:00N 48°58' W 005°04'1019.8
2017-Apr-20 16:30N 48°53' W 005°17'1019.2
2017-Apr-20 16:00N 48°50' W 005°31'6816.8
2017-Apr-20 12:00N 47°42' W 005°36'4522.5 080 / 341034.810.8 10.0 7.012.0
2017-Apr-20 10:00N 47°00' W 005°12'19019.0 100 / 381033.910.8 10.0 7.013.0
2017-Apr-20 00:00N 44°06' W 003°24'1918.5 080 / 551025.6 5.4 14.0 8.015.0
2017-Apr-19 23:00N 43°48' W 003°18'   080 / 541024.6 5.4 14.0 8.015.0

Dump ship's entire track history